sensor_id;sensor_type;location;lat;lon;timestamp;P1;durP1;ratioP1;P2;durP2;ratioP2
72156;SDS011;60035;52.122;5.406;2024-03-25T00:01:27;11.73;;;1.40;;
72156;SDS011;60035;52.122;5.406;2024-03-25T00:03:56;18.55;;;1.98;;
72156;SDS011;60035;52.122;5.406;2024-03-25T00:06:24;9.55;;;1.65;;
72156;SDS011;60035;52.122;5.406;2024-03-25T00:08:53;11.73;;;2.10;;
72156;SDS011;60035;52.122;5.406;2024-03-25T00:11:21;12.48;;;1.85;;
72156;SDS011;60035;52.122;5.406;2024-03-25T00:13:50;16.50;;;2.08;;
72156;SDS011;60035;52.122;5.406;2024-03-25T00:16:18;9.75;;;1.27;;
72156;SDS011;60035;52.122;5.406;2024-03-25T00:18:49;15.45;;;1.90;;
72156;SDS011;60035;52.122;5.406;2024-03-25T00:21:18;8.35;;;1.58;;
72156;SDS011;60035;52.122;5.406;2024-03-25T00:23:46;12.38;;;2.10;;
72156;SDS011;60035;52.122;5.406;2024-03-25T00:26:14;9.90;;;2.00;;
72156;SDS011;60035;52.122;5.406;2024-03-25T00:28:45;16.10;;;1.45;;
72156;SDS011;60035;52.122;5.406;2024-03-25T00:33:41;8.27;;;1.45;;
72156;SDS011;60035;52.122;5.406;2024-03-25T00:36:10;10.95;;;1.92;;
72156;SDS011;60035;52.122;5.406;2024-03-25T00:38:42;12.35;;;1.63;;
72156;SDS011;60035;52.122;5.406;2024-03-25T00:41:10;12.10;;;1.45;;
72156;SDS011;60035;52.122;5.406;2024-03-25T00:43:39;9.30;;;1.10;;
72156;SDS011;60035;52.122;5.406;2024-03-25T00:46:07;11.40;;;1.45;;
72156;SDS011;60035;52.122;5.406;2024-03-25T00:51:08;4.93;;;0.95;;
72156;SDS011;60035;52.122;5.406;2024-03-25T00:53:39;7.20;;;1.33;;
72156;SDS011;60035;52.122;5.406;2024-03-25T00:56:07;6.63;;;1.52;;
72156;SDS011;60035;52.122;5.406;2024-03-25T00:58:36;10.20;;;1.45;;
72156;SDS011;60035;52.122;5.406;2024-03-25T01:01:07;8.68;;;1.63;;
72156;SDS011;60035;52.122;5.406;2024-03-25T01:03:35;8.02;;;0.95;;
72156;SDS011;60035;52.122;5.406;2024-03-25T01:06:08;10.48;;;1.75;;
72156;SDS011;60035;52.122;5.406;2024-03-25T01:08:39;8.20;;;1.27;;
72156;SDS011;60035;52.122;5.406;2024-03-25T01:11:08;10.30;;;1.10;;
72156;SDS011;60035;52.122;5.406;2024-03-25T01:13:38;9.07;;;1.20;;
72156;SDS011;60035;52.122;5.406;2024-03-25T01:16:11;6.78;;;1.02;;
72156;SDS011;60035;52.122;5.406;2024-03-25T01:18:42;8.27;;;1.33;;
72156;SDS011;60035;52.122;5.406;2024-03-25T01:21:10;6.90;;;0.98;;
72156;SDS011;60035;52.122;5.406;2024-03-25T01:23:38;9.43;;;1.10;;
72156;SDS011;60035;52.122;5.406;2024-03-25T01:26:07;11.30;;;1.40;;
72156;SDS011;60035;52.122;5.406;2024-03-25T01:28:38;7.38;;;1.05;;
72156;SDS011;60035;52.122;5.406;2024-03-25T01:31:07;7.95;;;1.10;;
72156;SDS011;60035;52.122;5.406;2024-03-25T01:33:36;11.50;;;1.48;;
72156;SDS011;60035;52.122;5.406;2024-03-25T01:36:07;10.45;;;1.77;;
72156;SDS011;60035;52.122;5.406;2024-03-25T01:38:38;7.72;;;1.40;;
72156;SDS011;60035;52.122;5.406;2024-03-25T01:41:07;10.52;;;1.63;;
72156;SDS011;60035;52.122;5.406;2024-03-25T01:43:39;7.38;;;1.33;;
72156;SDS011;60035;52.122;5.406;2024-03-25T01:46:12;6.85;;;1.30;;
72156;SDS011;60035;52.122;5.406;2024-03-25T01:48:45;8.25;;;1.45;;
72156;SDS011;60035;52.122;5.406;2024-03-25T01:51:16;8.75;;;1.50;;
72156;SDS011;60035;52.122;5.406;2024-03-25T01:53:46;13.52;;;1.70;;
72156;SDS011;60035;52.122;5.406;2024-03-25T01:56:15;13.40;;;1.65;;
72156;SDS011;60035;52.122;5.406;2024-03-25T01:58:44;7.57;;;1.35;;
72156;SDS011;60035;52.122;5.406;2024-03-25T02:01:16;9.07;;;1.20;;
72156;SDS011;60035;52.122;5.406;2024-03-25T02:03:46;9.77;;;1.73;;
72156;SDS011;60035;52.122;5.406;2024-03-25T02:06:21;10.10;;;1.60;;
72156;SDS011;60035;52.122;5.406;2024-03-25T02:08:51;8.40;;;1.38;;
72156;SDS011;60035;52.122;5.406;2024-03-25T02:11:20;12.02;;;1.50;;
72156;SDS011;60035;52.122;5.406;2024-03-25T02:13:50;9.55;;;1.60;;
72156;SDS011;60035;52.122;5.406;2024-03-25T02:16:21;13.10;;;1.50;;
72156;SDS011;60035;52.122;5.406;2024-03-25T02:18:50;9.68;;;1.63;;
72156;SDS011;60035;52.122;5.406;2024-03-25T02:21:21;14.13;;;1.48;;
72156;SDS011;60035;52.122;5.406;2024-03-25T02:23:50;11.25;;;2.03;;
72156;SDS011;60035;52.122;5.406;2024-03-25T02:26:24;11.27;;;1.50;;
72156;SDS011;60035;52.122;5.406;2024-03-25T02:28:52;10.15;;;1.85;;
72156;SDS011;60035;52.122;5.406;2024-03-25T02:31:21;14.65;;;1.70;;
72156;SDS011;60035;52.122;5.406;2024-03-25T02:33:49;8.00;;;1.23;;
72156;SDS011;60035;52.122;5.406;2024-03-25T02:36:17;10.55;;;1.70;;
72156;SDS011;60035;52.122;5.406;2024-03-25T02:38:46;11.30;;;2.03;;
72156;SDS011;60035;52.122;5.406;2024-03-25T02:41:22;17.02;;;2.03;;
72156;SDS011;60035;52.122;5.406;2024-03-25T02:43:52;12.63;;;1.80;;
72156;SDS011;60035;52.122;5.406;2024-03-25T02:46:21;15.95;;;1.92;;
72156;SDS011;60035;52.122;5.406;2024-03-25T02:48:49;7.97;;;1.40;;
72156;SDS011;60035;52.122;5.406;2024-03-25T02:51:17;13.27;;;2.20;;
72156;SDS011;60035;52.122;5.406;2024-03-25T02:53:46;10.82;;;2.00;;
72156;SDS011;60035;52.122;5.406;2024-03-25T02:56:14;6.88;;;1.33;;
72156;SDS011;60035;52.122;5.406;2024-03-25T02:58:43;17.65;;;2.33;;
72156;SDS011;60035;52.122;5.406;2024-03-25T03:01:11;12.43;;;1.85;;
72156;SDS011;60035;52.122;5.406;2024-03-25T03:03:39;14.63;;;2.00;;
72156;SDS011;60035;52.122;5.406;2024-03-25T03:06:08;12.52;;;1.83;;
72156;SDS011;60035;52.122;5.406;2024-03-25T03:08:36;13.93;;;1.58;;
72156;SDS011;60035;52.122;5.406;2024-03-25T03:11:05;10.93;;;1.63;;
72156;SDS011;60035;52.122;5.406;2024-03-25T03:13:35;14.05;;;2.08;;
72156;SDS011;60035;52.122;5.406;2024-03-25T03:18:35;13.70;;;1.80;;
72156;SDS011;60035;52.122;5.406;2024-03-25T03:21:05;9.73;;;1.90;;
72156;SDS011;60035;52.122;5.406;2024-03-25T03:23:36;10.48;;;1.60;;
72156;SDS011;60035;52.122;5.406;2024-03-25T03:26:04;8.10;;;1.38;;
72156;SDS011;60035;52.122;5.406;2024-03-25T03:28:33;13.30;;;1.42;;
72156;SDS011;60035;52.122;5.406;2024-03-25T03:31:01;7.03;;;1.33;;
72156;SDS011;60035;52.122;5.406;2024-03-25T03:33:31;9.18;;;1.42;;
72156;SDS011;60035;52.122;5.406;2024-03-25T03:35:59;9.55;;;1.40;;
72156;SDS011;60035;52.122;5.406;2024-03-25T03:38:27;6.95;;;1.63;;
72156;SDS011;60035;52.122;5.406;2024-03-25T03:40:58;10.25;;;1.10;;
72156;SDS011;60035;52.122;5.406;2024-03-25T03:43:28;5.32;;;0.80;;
72156;SDS011;60035;52.122;5.406;2024-03-25T03:45:56;6.78;;;1.25;;
72156;SDS011;60035;52.122;5.406;2024-03-25T03:48:24;4.05;;;1.10;;
72156;SDS011;60035;52.122;5.406;2024-03-25T03:50:53;13.18;;;1.52;;
72156;SDS011;60035;52.122;5.406;2024-03-25T03:53:21;9.35;;;1.27;;
72156;SDS011;60035;52.122;5.406;2024-03-25T03:55:56;3.90;;;1.30;;
72156;SDS011;60035;52.122;5.406;2024-03-25T03:58:32;6.63;;;1.05;;
72156;SDS011;60035;52.122;5.406;2024-03-25T04:01:01;5.07;;;1.40;;
72156;SDS011;60035;52.122;5.406;2024-03-25T04:03:31;6.78;;;1.42;;
72156;SDS011;60035;52.122;5.406;2024-03-25T04:05:59;10.18;;;1.40;;
72156;SDS011;60035;52.122;5.406;2024-03-25T04:08:35;7.13;;;1.05;;
72156;SDS011;60035;52.122;5.406;2024-03-25T04:11:04;7.93;;;1.30;;
72156;SDS011;60035;52.122;5.406;2024-03-25T04:13:34;5.40;;;1.33;;
72156;SDS011;60035;52.122;5.406;2024-03-25T04:16:03;7.57;;;1.30;;
72156;SDS011;60035;52.122;5.406;2024-03-25T04:18:32;12.57;;;1.50;;
72156;SDS011;60035;52.122;5.406;2024-03-25T04:21:01;8.13;;;1.55;;
72156;SDS011;60035;52.122;5.406;2024-03-25T04:23:30;6.95;;;1.33;;
72156;SDS011;60035;52.122;5.406;2024-03-25T04:26:00;7.07;;;1.08;;
72156;SDS011;60035;52.122;5.406;2024-03-25T04:28:29;8.32;;;1.20;;
72156;SDS011;60035;52.122;5.406;2024-03-25T04:30:58;5.70;;;1.30;;
72156;SDS011;60035;52.122;5.406;2024-03-25T04:33:26;6.93;;;1.30;;
72156;SDS011;60035;52.122;5.406;2024-03-25T04:35:54;6.18;;;1.27;;
72156;SDS011;60035;52.122;5.406;2024-03-25T04:38:23;10.52;;;1.70;;
72156;SDS011;60035;52.122;5.406;2024-03-25T04:40:51;7.22;;;1.45;;
72156;SDS011;60035;52.122;5.406;2024-03-25T04:43:21;7.70;;;1.30;;
72156;SDS011;60035;52.122;5.406;2024-03-25T04:45:49;7.75;;;1.08;;
72156;SDS011;60035;52.122;5.406;2024-03-25T04:48:18;6.82;;;1.45;;
72156;SDS011;60035;52.122;5.406;2024-03-25T04:50:46;5.15;;;0.80;;
72156;SDS011;60035;52.122;5.406;2024-03-25T04:53:15;6.43;;;1.33;;
72156;SDS011;60035;52.122;5.406;2024-03-25T04:55:43;5.30;;;1.67;;
72156;SDS011;60035;52.122;5.406;2024-03-25T04:58:12;5.18;;;1.15;;
72156;SDS011;60035;52.122;5.406;2024-03-25T05:00:40;4.70;;;1.00;;
72156;SDS011;60035;52.122;5.406;2024-03-25T05:03:10;4.22;;;1.25;;
72156;SDS011;60035;52.122;5.406;2024-03-25T05:05:39;7.82;;;1.50;;
72156;SDS011;60035;52.122;5.406;2024-03-25T05:08:08;7.53;;;1.30;;
72156;SDS011;60035;52.122;5.406;2024-03-25T05:10:36;4.32;;;1.08;;
72156;SDS011;60035;52.122;5.406;2024-03-25T05:13:04;9.27;;;1.10;;
72156;SDS011;60035;52.122;5.406;2024-03-25T05:15:33;9.02;;;1.33;;
72156;SDS011;60035;52.122;5.406;2024-03-25T05:18:01;8.15;;;1.30;;
72156;SDS011;60035;52.122;5.406;2024-03-25T05:20:30;6.75;;;1.75;;
72156;SDS011;60035;52.122;5.406;2024-03-25T05:23:00;6.03;;;1.15;;
72156;SDS011;60035;52.122;5.406;2024-03-25T05:25:29;6.45;;;1.50;;
72156;SDS011;60035;52.122;5.406;2024-03-25T05:27:57;8.80;;;1.42;;
72156;SDS011;60035;52.122;5.406;2024-03-25T05:32:56;6.45;;;1.45;;
72156;SDS011;60035;52.122;5.406;2024-03-25T05:35:25;8.68;;;1.30;;
72156;SDS011;60035;52.122;5.406;2024-03-25T05:37:57;6.70;;;1.50;;
72156;SDS011;60035;52.122;5.406;2024-03-25T05:40:29;9.80;;;1.77;;
72156;SDS011;60035;52.122;5.406;2024-03-25T05:42:57;11.07;;;1.42;;
72156;SDS011;60035;52.122;5.406;2024-03-25T05:45:26;9.10;;;1.40;;
72156;SDS011;60035;52.122;5.406;2024-03-25T05:47:54;10.90;;;1.45;;
72156;SDS011;60035;52.122;5.406;2024-03-25T05:50:23;10.20;;;1.40;;
72156;SDS011;60035;52.122;5.406;2024-03-25T05:52:51;7.65;;;1.77;;
72156;SDS011;60035;52.122;5.406;2024-03-25T05:55:19;5.40;;;1.75;;
72156;SDS011;60035;52.122;5.406;2024-03-25T05:57:48;6.25;;;1.55;;
72156;SDS011;60035;52.122;5.406;2024-03-25T06:00:16;8.48;;;1.40;;
72156;SDS011;60035;52.122;5.406;2024-03-25T06:02:48;11.18;;;1.80;;
72156;SDS011;60035;52.122;5.406;2024-03-25T06:05:17;8.07;;;1.38;;
72156;SDS011;60035;52.122;5.406;2024-03-25T06:07:45;7.20;;;1.40;;
72156;SDS011;60035;52.122;5.406;2024-03-25T06:10:14;11.40;;;1.77;;
72156;SDS011;60035;52.122;5.406;2024-03-25T06:12:42;12.10;;;2.03;;
72156;SDS011;60035;52.122;5.406;2024-03-25T06:15:11;7.25;;;1.75;;
72156;SDS011;60035;52.122;5.406;2024-03-25T06:17:42;9.32;;;2.17;;
72156;SDS011;60035;52.122;5.406;2024-03-25T06:20:13;12.48;;;2.25;;
72156;SDS011;60035;52.122;5.406;2024-03-25T06:22:42;8.48;;;1.67;;
72156;SDS011;60035;52.122;5.406;2024-03-25T06:25:13;12.65;;;2.47;;
72156;SDS011;60035;52.122;5.406;2024-03-25T06:27:43;9.10;;;2.42;;
72156;SDS011;60035;52.122;5.406;2024-03-25T06:30:13;9.75;;;2.42;;
72156;SDS011;60035;52.122;5.406;2024-03-25T06:33:00;8.43;;;2.17;;
72156;SDS011;60035;52.122;5.406;2024-03-25T06:35:49;9.80;;;2.25;;
72156;SDS011;60035;52.122;5.406;2024-03-25T06:38:20;13.70;;;2.78;;
72156;SDS011;60035;52.122;5.406;2024-03-25T06:40:48;12.95;;;3.47;;
72156;SDS011;60035;52.122;5.406;2024-03-25T06:43:18;13.38;;;2.95;;
72156;SDS011;60035;52.122;5.406;2024-03-25T06:45:49;12.73;;;3.28;;
72156;SDS011;60035;52.122;5.406;2024-03-25T06:48:17;15.75;;;3.88;;
72156;SDS011;60035;52.122;5.406;2024-03-25T06:53:46;11.65;;;2.38;;
72156;SDS011;60035;52.122;5.406;2024-03-25T06:56:18;14.30;;;3.53;;
72156;SDS011;60035;52.122;5.406;2024-03-25T06:58:46;16.88;;;3.55;;
72156;SDS011;60035;52.122;5.406;2024-03-25T07:01:15;18.65;;;3.47;;
72156;SDS011;60035;52.122;5.406;2024-03-25T07:03:43;12.02;;;3.15;;
72156;SDS011;60035;52.122;5.406;2024-03-25T07:06:14;13.82;;;2.83;;
72156;SDS011;60035;52.122;5.406;2024-03-25T07:08:45;12.20;;;2.70;;
72156;SDS011;60035;52.122;5.406;2024-03-25T07:11:15;17.75;;;2.78;;
72156;SDS011;60035;52.122;5.406;2024-03-25T07:13:43;13.75;;;2.63;;
72156;SDS011;60035;52.122;5.406;2024-03-25T07:16:11;17.17;;;3.80;;
72156;SDS011;60035;52.122;5.406;2024-03-25T07:18:40;15.27;;;3.78;;
72156;SDS011;60035;52.122;5.406;2024-03-25T07:21:08;11.63;;;3.10;;
72156;SDS011;60035;52.122;5.406;2024-03-25T07:23:38;16.20;;;3.10;;
72156;SDS011;60035;52.122;5.406;2024-03-25T07:26:06;15.07;;;3.20;;
72156;SDS011;60035;52.122;5.406;2024-03-25T07:28:35;14.07;;;3.03;;
72156;SDS011;60035;52.122;5.406;2024-03-25T07:31:03;16.85;;;3.58;;
72156;SDS011;60035;52.122;5.406;2024-03-25T07:33:31;15.23;;;3.72;;
72156;SDS011;60035;52.122;5.406;2024-03-25T07:36:00;15.23;;;2.88;;
72156;SDS011;60035;52.122;5.406;2024-03-25T07:38:28;13.32;;;2.45;;
72156;SDS011;60035;52.122;5.406;2024-03-25T07:40:59;17.08;;;2.63;;
72156;SDS011;60035;52.122;5.406;2024-03-25T07:43:31;12.68;;;2.45;;
72156;SDS011;60035;52.122;5.406;2024-03-25T07:46:03;13.65;;;2.70;;
72156;SDS011;60035;52.122;5.406;2024-03-25T07:48:32;12.00;;;2.10;;
72156;SDS011;60035;52.122;5.406;2024-03-25T07:51:03;14.20;;;2.25;;
72156;SDS011;60035;52.122;5.406;2024-03-25T07:53:33;20.65;;;2.95;;
72156;SDS011;60035;52.122;5.406;2024-03-25T07:58:34;15.95;;;2.95;;
72156;SDS011;60035;52.122;5.406;2024-03-25T08:03:32;12.40;;;2.33;;
72156;SDS011;60035;52.122;5.406;2024-03-25T08:06:01;13.38;;;2.30;;
72156;SDS011;60035;52.122;5.406;2024-03-25T08:08:30;10.85;;;2.15;;
72156;SDS011;60035;52.122;5.406;2024-03-25T08:10:58;10.02;;;1.92;;
72156;SDS011;60035;52.122;5.406;2024-03-25T08:13:27;9.32;;;1.70;;
72156;SDS011;60035;52.122;5.406;2024-03-25T08:15:55;9.43;;;2.10;;
72156;SDS011;60035;52.122;5.406;2024-03-25T08:18:24;11.50;;;2.28;;
72156;SDS011;60035;52.122;5.406;2024-03-25T08:20:52;12.10;;;2.10;;
72156;SDS011;60035;52.122;5.406;2024-03-25T08:23:26;8.38;;;1.63;;
72156;SDS011;60035;52.122;5.406;2024-03-25T08:25:54;8.93;;;1.75;;
72156;SDS011;60035;52.122;5.406;2024-03-25T08:28:23;14.73;;;2.67;;
72156;SDS011;60035;52.122;5.406;2024-03-25T08:30:56;11.30;;;2.13;;
72156;SDS011;60035;52.122;5.406;2024-03-25T08:33:32;13.05;;;1.90;;
72156;SDS011;60035;52.122;5.406;2024-03-25T08:36:01;8.90;;;1.48;;
72156;SDS011;60035;52.122;5.406;2024-03-25T08:38:31;11.02;;;1.80;;
72156;SDS011;60035;52.122;5.406;2024-03-25T08:41:00;9.05;;;1.48;;
72156;SDS011;60035;52.122;5.406;2024-03-25T08:43:28;10.43;;;1.52;;
72156;SDS011;60035;52.122;5.406;2024-03-25T08:45:59;11.23;;;1.90;;
72156;SDS011;60035;52.122;5.406;2024-03-25T08:48:28;8.05;;;1.40;;
72156;SDS011;60035;52.122;5.406;2024-03-25T08:50:56;12.00;;;1.70;;
72156;SDS011;60035;52.122;5.406;2024-03-25T08:53:27;7.82;;;1.10;;
72156;SDS011;60035;52.122;5.406;2024-03-25T08:55:55;10.75;;;1.15;;
72156;SDS011;60035;52.122;5.406;2024-03-25T08:58:24;12.27;;;1.90;;
72156;SDS011;60035;52.122;5.406;2024-03-25T09:00:55;12.23;;;1.73;;
72156;SDS011;60035;52.122;5.406;2024-03-25T09:03:24;7.50;;;1.55;;
72156;SDS011;60035;52.122;5.406;2024-03-25T09:05:53;11.57;;;1.75;;
72156;SDS011;60035;52.122;5.406;2024-03-25T09:08:27;10.27;;;1.42;;
72156;SDS011;60035;52.122;5.406;2024-03-25T09:11:03;11.32;;;1.60;;
72156;SDS011;60035;52.122;5.406;2024-03-25T09:13:36;13.85;;;1.70;;
72156;SDS011;60035;52.122;5.406;2024-03-25T09:16:09;9.43;;;1.90;;
72156;SDS011;60035;52.122;5.406;2024-03-25T09:18:38;7.80;;;2.17;;
72156;SDS011;60035;52.122;5.406;2024-03-25T09:21:11;12.55;;;2.13;;
72156;SDS011;60035;52.122;5.406;2024-03-25T09:23:48;13.48;;;2.55;;
72156;SDS011;60035;52.122;5.406;2024-03-25T09:26:16;15.85;;;2.55;;
72156;SDS011;60035;52.122;5.406;2024-03-25T09:28:47;12.50;;;2.17;;
72156;SDS011;60035;52.122;5.406;2024-03-25T09:31:16;9.80;;;1.88;;
72156;SDS011;60035;52.122;5.406;2024-03-25T09:33:47;8.40;;;2.03;;
72156;SDS011;60035;52.122;5.406;2024-03-25T09:36:18;10.02;;;1.88;;
72156;SDS011;60035;52.122;5.406;2024-03-25T09:38:48;13.32;;;1.95;;
72156;SDS011;60035;52.122;5.406;2024-03-25T09:41:21;10.52;;;1.90;;
72156;SDS011;60035;52.122;5.406;2024-03-25T09:43:54;11.50;;;2.40;;
72156;SDS011;60035;52.122;5.406;2024-03-25T09:46:24;14.95;;;2.50;;
72156;SDS011;60035;52.122;5.406;2024-03-25T09:48:54;10.77;;;2.10;;
72156;SDS011;60035;52.122;5.406;2024-03-25T09:51:22;12.65;;;1.92;;
72156;SDS011;60035;52.122;5.406;2024-03-25T09:53:51;11.32;;;2.17;;
72156;SDS011;60035;52.122;5.406;2024-03-25T09:56:22;8.10;;;1.73;;
72156;SDS011;60035;52.122;5.406;2024-03-25T09:58:50;11.43;;;2.10;;
72156;SDS011;60035;52.122;5.406;2024-03-25T10:01:21;10.63;;;2.15;;
72156;SDS011;60035;52.122;5.406;2024-03-25T10:03:50;13.63;;;2.72;;
72156;SDS011;60035;52.122;5.406;2024-03-25T10:06:18;16.02;;;3.35;;
72156;SDS011;60035;52.122;5.406;2024-03-25T10:08:47;16.83;;;2.90;;
72156;SDS011;60035;52.122;5.406;2024-03-25T10:11:15;10.07;;;2.67;;
72156;SDS011;60035;52.122;5.406;2024-03-25T10:13:45;10.20;;;2.55;;
72156;SDS011;60035;52.122;5.406;2024-03-25T10:16:15;9.52;;;2.53;;
72156;SDS011;60035;52.122;5.406;2024-03-25T10:18:43;9.05;;;2.60;;
72156;SDS011;60035;52.122;5.406;2024-03-25T10:21:12;15.55;;;2.70;;
72156;SDS011;60035;52.122;5.406;2024-03-25T10:23:43;12.65;;;2.92;;
72156;SDS011;60035;52.122;5.406;2024-03-25T10:26:25;11.70;;;2.63;;
72156;SDS011;60035;52.122;5.406;2024-03-25T10:29:07;10.27;;;2.25;;
72156;SDS011;60035;52.122;5.406;2024-03-25T10:31:38;9.88;;;2.78;;
72156;SDS011;60035;52.122;5.406;2024-03-25T10:34:10;13.63;;;3.88;;
72156;SDS011;60035;52.122;5.406;2024-03-25T10:36:39;10.73;;;3.28;;
72156;SDS011;60035;52.122;5.406;2024-03-25T10:39:07;11.15;;;3.25;;
72156;SDS011;60035;52.122;5.406;2024-03-25T10:41:37;10.52;;;3.60;;
72156;SDS011;60035;52.122;5.406;2024-03-25T10:44:08;11.10;;;3.13;;
72156;SDS011;60035;52.122;5.406;2024-03-25T10:46:37;9.90;;;3.20;;
72156;SDS011;60035;52.122;5.406;2024-03-25T10:49:27;8.32;;;2.95;;
72156;SDS011;60035;52.122;5.406;2024-03-25T10:52:02;9.30;;;2.83;;
72156;SDS011;60035;52.122;5.406;2024-03-25T10:54:35;7.65;;;2.78;;
72156;SDS011;60035;52.122;5.406;2024-03-25T10:57:06;12.07;;;3.30;;
72156;SDS011;60035;52.122;5.406;2024-03-25T10:59:36;8.85;;;3.33;;
72156;SDS011;60035;52.122;5.406;2024-03-25T11:02:08;10.05;;;3.03;;
72156;SDS011;60035;52.122;5.406;2024-03-25T11:04:37;9.60;;;3.08;;
72156;SDS011;60035;52.122;5.406;2024-03-25T11:07:13;11.10;;;3.25;;
72156;SDS011;60035;52.122;5.406;2024-03-25T11:09:42;11.88;;;3.38;;
72156;SDS011;60035;52.122;5.406;2024-03-25T11:12:13;9.68;;;2.58;;
72156;SDS011;60035;52.122;5.406;2024-03-25T11:14:45;10.20;;;2.80;;
72156;SDS011;60035;52.122;5.406;2024-03-25T11:17:24;11.43;;;2.70;;
72156;SDS011;60035;52.122;5.406;2024-03-25T11:19:53;10.25;;;3.13;;
72156;SDS011;60035;52.122;5.406;2024-03-25T11:22:25;10.77;;;2.67;;
72156;SDS011;60035;52.122;5.406;2024-03-25T11:24:56;10.02;;;2.85;;
72156;SDS011;60035;52.122;5.406;2024-03-25T11:27:26;9.00;;;2.78;;
72156;SDS011;60035;52.122;5.406;2024-03-25T11:29:56;9.48;;;2.90;;
72156;SDS011;60035;52.122;5.406;2024-03-25T11:32:25;11.27;;;3.47;;
72156;SDS011;60035;52.122;5.406;2024-03-25T11:34:59;11.35;;;3.45;;
72156;SDS011;60035;52.122;5.406;2024-03-25T11:37:28;11.75;;;3.50;;
72156;SDS011;60035;52.122;5.406;2024-03-25T11:40:04;8.27;;;3.38;;
72156;SDS011;60035;52.122;5.406;2024-03-25T11:42:34;9.32;;;3.30;;
72156;SDS011;60035;52.122;5.406;2024-03-25T11:45:02;9.93;;;3.25;;
72156;SDS011;60035;52.122;5.406;2024-03-25T11:47:31;9.02;;;3.58;;
72156;SDS011;60035;52.122;5.406;2024-03-25T11:50:06;11.07;;;3.25;;
72156;SDS011;60035;52.122;5.406;2024-03-25T11:52:35;9.30;;;3.15;;
72156;SDS011;60035;52.122;5.406;2024-03-25T11:55:04;9.48;;;3.10;;
72156;SDS011;60035;52.122;5.406;2024-03-25T11:57:32;12.48;;;3.53;;
72156;SDS011;60035;52.122;5.406;2024-03-25T12:00:01;12.93;;;3.40;;
72156;SDS011;60035;52.122;5.406;2024-03-25T12:02:45;10.48;;;3.42;;
72156;SDS011;60035;52.122;5.406;2024-03-25T12:05:16;11.18;;;3.88;;
72156;SDS011;60035;52.122;5.406;2024-03-25T12:07:45;9.73;;;3.30;;
72156;SDS011;60035;52.122;5.406;2024-03-25T12:10:13;11.10;;;3.35;;
72156;SDS011;60035;52.122;5.406;2024-03-25T12:13:06;12.23;;;3.60;;
72156;SDS011;60035;52.122;5.406;2024-03-25T12:15:39;9.88;;;3.50;;
72156;SDS011;60035;52.122;5.406;2024-03-25T12:18:13;6.90;;;3.28;;
72156;SDS011;60035;52.122;5.406;2024-03-25T12:20:44;9.65;;;3.40;;
72156;SDS011;60035;52.122;5.406;2024-03-25T12:23:15;9.40;;;2.90;;
72156;SDS011;60035;52.122;5.406;2024-03-25T12:25:48;8.07;;;2.88;;
72156;SDS011;60035;52.122;5.406;2024-03-25T12:28:17;8.85;;;3.70;;
72156;SDS011;60035;52.122;5.406;2024-03-25T12:30:49;7.07;;;3.00;;
72156;SDS011;60035;52.122;5.406;2024-03-25T12:35:47;7.90;;;2.90;;
72156;SDS011;60035;52.122;5.406;2024-03-25T12:38:28;8.77;;;2.90;;
72156;SDS011;60035;52.122;5.406;2024-03-25T12:41:11;8.77;;;2.78;;
72156;SDS011;60035;52.122;5.406;2024-03-25T12:43:44;7.03;;;2.30;;
72156;SDS011;60035;52.122;5.406;2024-03-25T12:46:13;9.43;;;2.65;;
72156;SDS011;60035;52.122;5.406;2024-03-25T12:48:42;8.90;;;2.70;;
72156;SDS011;60035;52.122;5.406;2024-03-25T12:51:16;8.77;;;2.70;;
72156;SDS011;60035;52.122;5.406;2024-03-25T12:53:44;6.93;;;2.40;;
72156;SDS011;60035;52.122;5.406;2024-03-25T12:56:13;8.07;;;1.90;;
72156;SDS011;60035;52.122;5.406;2024-03-25T12:58:41;8.25;;;2.28;;
72156;SDS011;60035;52.122;5.406;2024-03-25T13:01:10;6.25;;;2.50;;
72156;SDS011;60035;52.122;5.406;2024-03-25T13:03:38;6.15;;;1.90;;
72156;SDS011;60035;52.122;5.406;2024-03-25T13:06:07;8.63;;;3.03;;
72156;SDS011;60035;52.122;5.406;2024-03-25T13:08:35;10.80;;;3.35;;
72156;SDS011;60035;52.122;5.406;2024-03-25T13:11:06;6.32;;;2.55;;
72156;SDS011;60035;52.122;5.406;2024-03-25T13:13:35;8.68;;;2.22;;
72156;SDS011;60035;52.122;5.406;2024-03-25T13:16:03;6.05;;;2.10;;
72156;SDS011;60035;52.122;5.406;2024-03-25T13:18:32;10.18;;;2.72;;
72156;SDS011;60035;52.122;5.406;2024-03-25T13:21:00;8.63;;;2.42;;
72156;SDS011;60035;52.122;5.406;2024-03-25T13:23:32;8.25;;;2.72;;
72156;SDS011;60035;52.122;5.406;2024-03-25T13:26:00;9.45;;;3.05;;
72156;SDS011;60035;52.122;5.406;2024-03-25T13:28:28;6.03;;;2.47;;
72156;SDS011;60035;52.122;5.406;2024-03-25T13:30:57;5.85;;;2.05;;
72156;SDS011;60035;52.122;5.406;2024-03-25T13:33:26;5.55;;;1.58;;
72156;SDS011;60035;52.122;5.406;2024-03-25T13:35:55;5.47;;;1.95;;
72156;SDS011;60035;52.122;5.406;2024-03-25T13:38:23;7.65;;;2.63;;
72156;SDS011;60035;52.122;5.406;2024-03-25T13:40:52;7.57;;;2.65;;
72156;SDS011;60035;52.122;5.406;2024-03-25T13:43:21;7.80;;;2.63;;
72156;SDS011;60035;52.122;5.406;2024-03-25T13:45:50;8.07;;;2.55;;
72156;SDS011;60035;52.122;5.406;2024-03-25T13:48:18;7.55;;;3.00;;
72156;SDS011;60035;52.122;5.406;2024-03-25T13:50:47;8.15;;;2.80;;
72156;SDS011;60035;52.122;5.406;2024-03-25T13:53:16;6.80;;;2.53;;
72156;SDS011;60035;52.122;5.406;2024-03-25T13:55:45;7.18;;;2.72;;
72156;SDS011;60035;52.122;5.406;2024-03-25T13:58:13;8.93;;;2.63;;
72156;SDS011;60035;52.122;5.406;2024-03-25T14:00:41;6.03;;;2.40;;
72156;SDS011;60035;52.122;5.406;2024-03-25T14:03:10;7.13;;;1.90;;
72156;SDS011;60035;52.122;5.406;2024-03-25T14:05:38;4.85;;;1.40;;
72156;SDS011;60035;52.122;5.406;2024-03-25T14:08:06;5.32;;;1.63;;
72156;SDS011;60035;52.122;5.406;2024-03-25T14:10:35;6.38;;;1.75;;
72156;SDS011;60035;52.122;5.406;2024-03-25T14:13:03;7.50;;;2.65;;
72156;SDS011;60035;52.122;5.406;2024-03-25T14:15:35;8.30;;;2.72;;
72156;SDS011;60035;52.122;5.406;2024-03-25T14:18:03;8.07;;;2.65;;
72156;SDS011;60035;52.122;5.406;2024-03-25T14:20:32;7.60;;;2.50;;
72156;SDS011;60035;52.122;5.406;2024-03-25T14:23:01;9.15;;;2.53;;
72156;SDS011;60035;52.122;5.406;2024-03-25T14:25:29;6.05;;;1.83;;
72156;SDS011;60035;52.122;5.406;2024-03-25T14:27:57;6.32;;;2.15;;
72156;SDS011;60035;52.122;5.406;2024-03-25T14:30:26;6.82;;;2.25;;
72156;SDS011;60035;52.122;5.406;2024-03-25T14:32:57;5.28;;;2.17;;
72156;SDS011;60035;52.122;5.406;2024-03-25T14:35:26;7.50;;;1.98;;
72156;SDS011;60035;52.122;5.406;2024-03-25T14:37:54;8.63;;;2.65;;
72156;SDS011;60035;52.122;5.406;2024-03-25T14:40:23;7.78;;;2.40;;
72156;SDS011;60035;52.122;5.406;2024-03-25T14:42:51;7.50;;;2.47;;
72156;SDS011;60035;52.122;5.406;2024-03-25T14:45:20;6.28;;;2.47;;
72156;SDS011;60035;52.122;5.406;2024-03-25T14:47:49;6.22;;;2.40;;
72156;SDS011;60035;52.122;5.406;2024-03-25T14:50:17;7.43;;;2.45;;
72156;SDS011;60035;52.122;5.406;2024-03-25T14:52:45;6.10;;;2.10;;
72156;SDS011;60035;52.122;5.406;2024-03-25T14:55:14;7.93;;;1.73;;
72156;SDS011;60035;52.122;5.406;2024-03-25T14:57:42;5.88;;;1.90;;
72156;SDS011;60035;52.122;5.406;2024-03-25T15:00:11;5.53;;;2.25;;
72156;SDS011;60035;52.122;5.406;2024-03-25T15:02:39;6.50;;;2.13;;
72156;SDS011;60035;52.122;5.406;2024-03-25T15:05:08;5.82;;;2.17;;
72156;SDS011;60035;52.122;5.406;2024-03-25T15:07:36;6.07;;;1.75;;
72156;SDS011;60035;52.122;5.406;2024-03-25T15:10:05;7.30;;;2.28;;
72156;SDS011;60035;52.122;5.406;2024-03-25T15:12:33;5.45;;;1.98;;
72156;SDS011;60035;52.122;5.406;2024-03-25T15:15:02;6.28;;;2.10;;
72156;SDS011;60035;52.122;5.406;2024-03-25T15:17:37;5.90;;;1.98;;